createdAt,value
2018-07-13T00:02:09.610Z,20.70
2018-07-13T00:04:37.691Z,20.70
2018-07-13T00:07:05.793Z,20.70
2018-07-13T00:09:33.897Z,20.60
2018-07-13T00:12:01.970Z,20.60
2018-07-13T00:14:30.056Z,20.60
2018-07-13T00:16:59.077Z,20.60
2018-07-13T00:19:27.567Z,20.60
2018-07-13T00:21:55.644Z,20.60
2018-07-13T00:24:23.753Z,20.60
2018-07-13T00:26:51.834Z,20.60
2018-07-13T00:29:19.908Z,20.60
2018-07-13T00:31:48.006Z,20.60
2018-07-13T00:34:16.085Z,20.50
2018-07-13T00:36:44.158Z,20.50
2018-07-13T00:39:13.450Z,20.50
2018-07-13T00:41:41.522Z,20.40
2018-07-13T00:44:09.715Z,20.40
2018-07-13T00:46:37.785Z,20.40
2018-07-13T00:49:06.055Z,20.30
2018-07-13T00:51:34.121Z,20.30
2018-07-13T00:54:02.214Z,20.20
2018-07-13T00:56:30.321Z,20.20
2018-07-13T01:01:26.262Z,20.00
2018-07-13T01:03:54.353Z,19.90
2018-07-13T01:06:22.442Z,19.80
2018-07-13T01:08:50.508Z,19.70
2018-07-13T01:11:18.610Z,19.70
2018-07-13T01:13:46.680Z,19.60
2018-07-13T01:16:14.778Z,19.60
2018-07-13T01:18:42.877Z,19.60
2018-07-13T01:21:10.957Z,19.60
2018-07-13T01:23:39.028Z,19.60
2018-07-13T01:26:07.121Z,19.60
2018-07-13T01:28:35.189Z,19.60
2018-07-13T01:31:03.288Z,19.50
2018-07-13T01:33:31.368Z,19.60
2018-07-13T01:38:27.353Z,19.50
2018-07-13T01:40:55.445Z,19.40
2018-07-13T01:43:23.587Z,19.40
2018-07-13T01:45:51.697Z,19.40
2018-07-13T01:48:20.046Z,19.40
2018-07-13T01:50:48.133Z,19.30
2018-07-13T01:53:16.213Z,19.20
2018-07-13T01:55:44.321Z,19.20
2018-07-13T01:58:12.369Z,19.10
2018-07-13T02:00:40.455Z,19.20
2018-07-13T02:03:08.537Z,19.20
2018-07-13T02:05:36.618Z,19.20
2018-07-13T02:08:04.998Z,19.20
2018-07-13T02:10:33.044Z,19.10
2018-07-13T02:13:01.357Z,19.10
2018-07-13T02:15:29.433Z,19.10
2018-07-13T02:17:57.513Z,19.10
2018-07-13T02:20:25.677Z,19.10
2018-07-13T02:22:53.777Z,19.00
2018-07-13T02:25:21.857Z,19.00
2018-07-13T02:27:49.952Z,19.00
2018-07-13T02:30:18.056Z,19.00
2018-07-13T02:32:46.155Z,18.90
2018-07-13T02:35:14.231Z,18.90
2018-07-13T02:37:42.336Z,18.90
2018-07-13T02:40:10.406Z,18.70
2018-07-13T02:42:38.511Z,18.70
2018-07-13T02:45:06.586Z,18.60
2018-07-13T02:47:34.652Z,18.60
2018-07-13T02:50:02.753Z,18.60
2018-07-13T02:52:30.842Z,18.40
2018-07-13T02:54:58.926Z,18.40
2018-07-13T02:59:54.913Z,18.40
2018-07-13T03:02:23.002Z,18.30
2018-07-13T03:04:51.121Z,18.20
2018-07-13T03:07:19.207Z,18.20
2018-07-13T03:09:47.305Z,18.20
2018-07-13T03:12:15.395Z,18.10
2018-07-13T03:14:43.494Z,18.00
2018-07-13T03:17:11.626Z,18.00
2018-07-13T03:19:39.709Z,18.00
2018-07-13T03:22:07.875Z,18.00
2018-07-13T03:24:35.907Z,18.00
2018-07-13T03:27:03.989Z,17.90
2018-07-13T03:29:32.081Z,17.90
2018-07-13T03:32:00.182Z,17.80
2018-07-13T03:34:28.268Z,17.70
2018-07-13T03:36:56.375Z,17.70
2018-07-13T03:39:24.462Z,17.70
2018-07-13T03:41:52.550Z,17.70
2018-07-13T03:44:20.630Z,17.70
2018-07-13T03:46:48.722Z,17.60
2018-07-13T03:49:16.812Z,17.60
2018-07-13T03:51:45.025Z,17.60
2018-07-13T03:54:13.181Z,17.70
2018-07-13T03:56:41.268Z,17.70
2018-07-13T03:59:09.356Z,17.60
2018-07-13T04:01:37.466Z,17.60
2018-07-13T04:04:05.569Z,17.60
2018-07-13T04:06:33.723Z,17.60
2018-07-13T04:09:01.746Z,17.50
2018-07-13T04:11:29.849Z,17.60
2018-07-13T04:13:57.936Z,17.60
2018-07-13T04:16:26.065Z,17.60
2018-07-13T04:18:54.168Z,17.60
2018-07-13T04:21:22.274Z,17.60
2018-07-13T04:23:50.392Z,17.50
2018-07-13T04:26:18.488Z,17.50
2018-07-13T04:28:46.601Z,17.60
2018-07-13T04:31:14.637Z,17.50
2018-07-13T04:33:42.906Z,17.50
2018-07-13T04:36:11.001Z,17.50
2018-07-13T04:38:41.296Z,17.50
2018-07-13T04:41:09.594Z,17.40
2018-07-13T04:43:37.693Z,17.40
2018-07-13T04:46:05.793Z,17.50
2018-07-13T04:48:34.209Z,17.50
2018-07-13T04:51:02.009Z,17.50
2018-07-13T04:53:30.101Z,17.50
2018-07-13T04:55:58.184Z,17.50
2018-07-13T04:58:26.276Z,17.50
2018-07-13T05:00:54.367Z,17.60
2018-07-13T05:03:22.469Z,17.60
2018-07-13T05:05:50.770Z,17.60
2018-07-13T05:08:19.396Z,17.70
2018-07-13T05:10:47.473Z,17.80
2018-07-13T05:13:15.558Z,17.80
2018-07-13T05:15:43.645Z,17.80
2018-07-13T05:18:11.744Z,17.90
2018-07-13T05:20:39.813Z,17.80
2018-07-13T05:23:07.916Z,17.90
2018-07-13T05:25:36.014Z,18.00
2018-07-13T05:28:04.122Z,18.00
2018-07-13T05:30:32.214Z,18.10
2018-07-13T05:33:00.297Z,18.10
2018-07-13T05:35:28.402Z,18.20
2018-07-13T05:37:56.713Z,18.20
2018-07-13T05:40:24.804Z,18.20
2018-07-13T05:42:52.885Z,18.30
2018-07-13T05:45:20.995Z,18.40
2018-07-13T05:47:49.081Z,18.40
2018-07-13T05:50:17.213Z,18.40
2018-07-13T05:52:45.337Z,18.50
2018-07-13T05:55:13.422Z,18.50
2018-07-13T05:57:41.535Z,18.60
2018-07-13T06:00:09.623Z,18.60
2018-07-13T06:02:37.706Z,18.70
2018-07-13T06:05:05.845Z,18.80
2018-07-13T06:07:33.916Z,18.90
2018-07-13T06:10:02.003Z,18.90
2018-07-13T06:12:30.091Z,19.00
2018-07-13T06:14:58.209Z,19.10
2018-07-13T06:17:26.282Z,19.10
2018-07-13T06:19:54.565Z,19.20
2018-07-13T06:22:22.669Z,19.30
2018-07-13T06:24:50.767Z,19.30
2018-07-13T06:29:46.852Z,19.40
2018-07-13T06:32:14.937Z,19.50
2018-07-13T06:34:43.055Z,19.60
2018-07-13T06:37:11.142Z,19.70
2018-07-13T06:39:39.222Z,19.80
2018-07-13T06:42:07.342Z,19.90
2018-07-13T06:44:35.418Z,20.00
2018-07-13T06:47:03.501Z,20.10
2018-07-13T06:49:31.585Z,20.10
2018-07-13T06:51:59.689Z,20.20
2018-07-13T06:54:27.833Z,20.30
2018-07-13T06:56:55.960Z,20.40
2018-07-13T06:59:24.030Z,20.50
2018-07-13T07:01:52.113Z,20.60
2018-07-13T07:04:25.629Z,20.70
2018-07-13T07:06:54.170Z,20.80
2018-07-13T07:09:22.445Z,20.90
2018-07-13T07:12:12.042Z,21.00
2018-07-13T07:14:40.142Z,21.00
2018-07-13T07:19:36.072Z,21.20
2018-07-13T07:22:04.178Z,21.30
2018-07-13T07:24:32.307Z,21.30
2018-07-13T07:27:00.346Z,21.40
2018-07-13T07:29:28.447Z,21.50
2018-07-13T07:31:56.548Z,21.60
2018-07-13T07:34:24.629Z,21.60
2018-07-13T07:36:52.710Z,21.70
2018-07-13T07:39:20.817Z,21.80
2018-07-13T07:41:48.912Z,21.90
2018-07-13T07:44:17.245Z,22.00
2018-07-13T07:46:45.695Z,22.10
2018-07-13T07:49:13.785Z,22.10
2018-07-13T07:51:41.880Z,22.20
2018-07-13T07:54:09.954Z,22.30
2018-07-13T07:56:38.041Z,22.30
2018-07-13T07:59:06.182Z,22.30
2018-07-13T08:01:34.322Z,22.40
2018-07-13T08:04:02.444Z,22.40
2018-07-13T08:06:30.655Z,22.50
2018-07-13T08:08:58.657Z,22.50
2018-07-13T08:11:26.764Z,22.60
2018-07-13T08:13:54.934Z,22.60
2018-07-13T08:16:23.014Z,22.70
2018-07-13T08:18:51.128Z,22.80
2018-07-13T08:21:19.265Z,22.90
2018-07-13T08:23:47.333Z,22.90
2018-07-13T08:26:15.422Z,23.00
2018-07-13T08:28:45.393Z,23.10
2018-07-13T08:31:13.469Z,23.20
2018-07-13T08:33:41.601Z,23.30
2018-07-13T08:36:09.681Z,23.40
2018-07-13T08:38:38.046Z,23.40
2018-07-13T08:41:06.147Z,23.50
2018-07-13T08:43:34.233Z,23.50
2018-07-13T08:46:02.333Z,23.60
2018-07-13T08:48:30.426Z,23.70
2018-07-13T08:50:58.572Z,23.70
2018-07-13T08:55:54.521Z,23.80
2018-07-13T08:58:22.664Z,23.80
2018-07-13T09:00:50.754Z,23.80
2018-07-13T09:03:18.829Z,23.90
2018-07-13T09:05:46.983Z,23.90
2018-07-13T09:08:15.018Z,24.00
2018-07-13T09:10:43.141Z,24.00
2018-07-13T09:13:11.199Z,24.10
2018-07-13T09:18:07.173Z,24.30
2018-07-13T09:20:35.249Z,24.30
2018-07-13T09:23:03.334Z,24.40
2018-07-13T09:25:31.432Z,24.50
2018-07-13T09:27:59.508Z,24.50
2018-07-13T09:30:27.633Z,24.60
2018-07-13T09:32:55.722Z,24.60
2018-07-13T09:35:23.807Z,24.70
2018-07-13T09:37:51.910Z,24.70
2018-07-13T09:40:19.961Z,24.80
2018-07-13T09:42:48.289Z,24.90
2018-07-13T09:45:16.378Z,24.90
2018-07-13T09:47:44.468Z,25.00
2018-07-13T09:50:12.548Z,25.10
2018-07-13T09:52:40.638Z,25.10
2018-07-13T09:57:36.574Z,25.30
2018-07-13T10:00:04.689Z,25.40
2018-07-13T10:02:32.782Z,25.40
2018-07-13T10:05:00.889Z,25.50
2018-07-13T10:07:28.977Z,25.60
2018-07-13T10:09:57.040Z,25.70
2018-07-13T10:12:25.137Z,25.70
2018-07-13T10:14:53.217Z,25.80
2018-07-13T10:17:21.319Z,25.90
2018-07-13T10:19:49.387Z,26.00
2018-07-13T10:22:21.394Z,26.10
2018-07-13T10:24:50.280Z,26.20
2018-07-13T10:27:18.378Z,26.20
2018-07-13T10:29:49.077Z,26.30
2018-07-13T10:32:17.145Z,26.30
2018-07-13T10:40:20.623Z,26.50
2018-07-13T10:42:48.743Z,26.50
2018-07-13T10:45:16.817Z,26.60
2018-07-13T10:50:13.857Z,26.80
2018-07-13T10:52:41.949Z,26.90
2018-07-13T10:55:10.057Z,27.00
2018-07-13T10:57:38.186Z,27.10
2018-07-13T11:00:06.351Z,27.20
2018-07-13T11:02:34.473Z,27.30
2018-07-13T11:05:02.558Z,27.40
2018-07-13T11:07:30.637Z,27.40
2018-07-13T11:09:58.719Z,27.50
2018-07-13T11:12:26.809Z,27.60
2018-07-13T11:14:54.889Z,27.70
2018-07-13T11:19:50.897Z,27.90
2018-07-13T11:22:18.985Z,28.00
2018-07-13T11:24:47.065Z,28.10
2018-07-13T11:27:15.146Z,28.10
2018-07-13T11:29:43.306Z,28.20
2018-07-13T11:32:11.957Z,28.30
2018-07-13T11:34:40.039Z,28.40
2018-07-13T11:37:09.087Z,28.60
2018-07-13T11:39:37.028Z,28.60
2018-07-13T11:42:05.110Z,28.70
2018-07-13T11:44:33.182Z,28.80
2018-07-13T11:47:01.261Z,28.90
2018-07-13T11:49:29.321Z,29.00
2018-07-13T11:51:57.409Z,29.10
2018-07-13T11:54:25.525Z,29.20
2018-07-13T11:56:53.885Z,29.30
2018-07-13T11:59:21.963Z,29.30
2018-07-13T12:01:50.088Z,29.40
2018-07-13T12:04:18.157Z,29.50
2018-07-13T12:06:46.242Z,29.70
2018-07-13T12:09:14.325Z,29.70
2018-07-13T12:11:42.773Z,29.70
2018-07-13T12:14:10.881Z,29.70
2018-07-13T12:16:39.004Z,29.70
2018-07-13T12:19:07.067Z,29.70
2018-07-13T12:21:35.174Z,29.70
2018-07-13T12:24:03.233Z,29.70
2018-07-13T12:26:31.514Z,29.80
2018-07-13T12:28:59.582Z,29.90
2018-07-13T12:31:27.682Z,30.00
2018-07-13T12:33:55.746Z,30.10
2018-07-13T12:36:23.829Z,30.20
2018-07-13T12:38:51.893Z,30.40
2018-07-13T12:41:19.997Z,30.60
2018-07-13T12:43:48.080Z,30.80
2018-07-13T12:46:16.169Z,31.10
2018-07-13T12:48:44.254Z,31.50
2018-07-13T12:51:12.320Z,32.00
2018-07-13T12:53:40.401Z,32.50
2018-07-13T12:56:08.509Z,33.20
2018-07-13T12:58:36.600Z,34.00
2018-07-13T13:01:04.681Z,35.00
2018-07-13T13:03:32.786Z,36.00
2018-07-13T13:06:00.853Z,37.00
2018-07-13T13:08:29.196Z,38.10
2018-07-13T13:10:57.273Z,38.80
2018-07-13T13:13:25.355Z,39.50
2018-07-13T13:15:53.431Z,39.80
2018-07-13T13:20:49.431Z,39.70
2018-07-13T13:23:17.525Z,39.30
2018-07-13T13:25:45.592Z,38.90
2018-07-13T13:28:13.677Z,38.60
2018-07-13T13:30:41.758Z,37.90
2018-07-13T13:33:10.667Z,37.30
2018-07-13T13:35:38.761Z,36.70
2018-07-13T13:38:06.921Z,36.40
2018-07-13T13:40:34.993Z,36.10
2018-07-13T13:43:03.077Z,35.90
2018-07-13T13:45:31.228Z,35.60
2018-07-13T13:47:59.505Z,35.40
2018-07-13T13:50:27.585Z,35.30
2018-07-13T13:52:55.655Z,35.00
2018-07-13T13:55:23.733Z,34.80
2018-07-13T13:57:51.801Z,34.60
2018-07-13T14:00:19.898Z,34.50
2018-07-13T14:02:48.014Z,34.50
2018-07-13T14:05:16.184Z,34.50
2018-07-13T14:07:44.202Z,34.20
2018-07-13T14:10:12.285Z,34.20
2018-07-13T14:12:40.365Z,34.20
2018-07-13T14:15:08.445Z,34.10
2018-07-13T14:17:36.508Z,33.90
2018-07-13T14:20:04.777Z,33.60
2018-07-13T14:22:32.857Z,33.30
2018-07-13T14:25:00.921Z,33.20
2018-07-13T14:27:29.001Z,33.00
2018-07-13T14:32:25.115Z,32.50
2018-07-13T14:34:53.221Z,32.30
2018-07-13T14:39:49.226Z,32.00
2018-07-13T14:42:17.309Z,32.00
2018-07-13T14:44:45.406Z,32.10
2018-07-13T14:47:13.591Z,32.00
2018-07-13T14:49:41.561Z,31.90
2018-07-13T14:52:09.681Z,31.90
2018-07-13T14:54:37.756Z,31.80
2018-07-13T14:57:05.833Z,31.90
2018-07-13T14:59:33.918Z,31.90
2018-07-13T15:04:30.068Z,31.80
2018-07-13T15:09:26.010Z,32.00
2018-07-13T15:11:54.158Z,32.10
2018-07-13T15:14:22.301Z,32.20
2018-07-13T15:16:50.389Z,32.30
2018-07-13T15:19:18.472Z,32.40
2018-07-13T15:21:46.618Z,32.50
2018-07-13T15:24:14.637Z,32.60
2018-07-13T15:26:42.730Z,32.70
2018-07-13T15:29:10.817Z,32.70
2018-07-13T15:31:39.085Z,32.70
2018-07-13T15:34:07.178Z,32.80
2018-07-13T15:36:35.247Z,32.70
2018-07-13T15:39:03.399Z,32.60
2018-07-13T15:41:31.469Z,32.40
2018-07-13T15:43:59.658Z,32.30
2018-07-13T15:46:27.749Z,32.10
2018-07-13T15:48:55.853Z,31.80
2018-07-13T15:51:23.943Z,31.70
2018-07-13T15:53:52.022Z,31.60
2018-07-13T15:56:20.107Z,31.60
2018-07-13T15:58:48.369Z,31.60
2018-07-13T16:01:16.341Z,31.60
2018-07-13T16:03:44.616Z,31.60
2018-07-13T16:06:12.701Z,31.60
2018-07-13T16:08:40.805Z,31.60
2018-07-13T16:11:09.064Z,31.60
2018-07-13T16:13:37.182Z,31.70
2018-07-13T16:16:05.269Z,31.70
2018-07-13T16:18:33.376Z,31.70
2018-07-13T16:21:01.458Z,31.80
2018-07-13T16:23:29.561Z,31.80
2018-07-13T16:25:57.645Z,31.80
2018-07-13T16:30:53.626Z,31.80
2018-07-13T16:33:21.705Z,31.90
2018-07-13T16:35:49.784Z,31.90
2018-07-13T16:38:17.910Z,31.80
2018-07-13T16:40:46.034Z,31.80
2018-07-13T16:43:14.151Z,31.80
2018-07-13T16:45:42.230Z,31.80
2018-07-13T16:48:10.313Z,31.80
2018-07-13T16:50:38.425Z,31.70
2018-07-13T16:53:06.564Z,31.70
2018-07-13T16:55:34.658Z,31.60
2018-07-13T16:58:02.737Z,31.60
2018-07-13T17:00:30.821Z,31.60
2018-07-13T17:02:58.954Z,31.60
2018-07-13T17:05:26.982Z,31.60
2018-07-13T17:07:57.548Z,31.50
2018-07-13T17:10:25.647Z,31.40
2018-07-13T17:12:53.744Z,31.40
2018-07-13T17:15:22.033Z,31.30
2018-07-13T17:17:50.101Z,31.30
2018-07-13T17:20:18.202Z,31.30
2018-07-13T17:22:46.261Z,31.30
2018-07-13T17:25:14.430Z,31.20
2018-07-13T17:27:42.490Z,31.10
2018-07-13T17:30:11.109Z,31.10
2018-07-13T17:32:39.382Z,31.00
2018-07-13T17:35:07.528Z,31.00
2018-07-13T17:37:35.570Z,30.80
2018-07-13T17:40:03.653Z,30.80
2018-07-13T17:42:31.778Z,30.70
2018-07-13T17:44:59.805Z,30.60
2018-07-13T17:47:27.880Z,30.50
2018-07-13T17:49:55.961Z,30.30
2018-07-13T17:52:24.046Z,30.30
2018-07-13T17:54:52.125Z,30.20
2018-07-13T17:57:20.185Z,30.00
2018-07-13T17:59:48.269Z,29.90
2018-07-13T18:02:21.909Z,29.90
2018-07-13T18:04:49.994Z,29.70
2018-07-13T18:07:18.057Z,29.70
2018-07-13T18:09:46.129Z,29.60
2018-07-13T18:12:14.205Z,29.50
2018-07-13T18:14:42.505Z,29.50
2018-07-13T18:17:10.590Z,29.50
2018-07-13T18:19:38.665Z,29.30
2018-07-13T18:22:06.757Z,29.20
2018-07-13T18:24:34.852Z,29.10
2018-07-13T18:29:31.091Z,28.90
2018-07-13T18:31:59.165Z,28.70
2018-07-13T18:34:27.246Z,28.70
2018-07-13T18:36:55.321Z,28.60
2018-07-13T18:39:23.400Z,28.50
2018-07-13T18:41:51.462Z,28.40
2018-07-13T18:44:19.592Z,28.40
2018-07-13T18:46:47.645Z,28.30
2018-07-13T18:49:15.726Z,28.20
2018-07-13T18:51:43.849Z,28.10
2018-07-13T18:54:11.933Z,28.00
2018-07-13T18:56:40.006Z,27.90
2018-07-13T18:59:08.087Z,27.90
2018-07-13T19:01:36.150Z,27.80
2018-07-13T19:04:04.233Z,27.70
2018-07-13T19:06:32.318Z,27.70
2018-07-13T19:09:00.409Z,27.60
2018-07-13T19:11:28.482Z,27.60
2018-07-13T19:13:56.588Z,27.50
2018-07-13T19:16:24.678Z,27.50
2018-07-13T19:18:52.750Z,27.40
2018-07-13T19:21:20.850Z,27.40
2018-07-13T19:23:48.938Z,27.30
2018-07-13T19:26:17.018Z,27.20
2018-07-13T19:28:45.100Z,27.20
2018-07-13T19:31:13.207Z,27.10
2018-07-13T19:33:41.253Z,27.10
2018-07-13T19:36:09.397Z,27.00
2018-07-13T19:38:37.397Z,27.00
2018-07-13T19:41:05.665Z,27.00
2018-07-13T19:43:33.746Z,26.90
2018-07-13T19:46:01.826Z,26.80
2018-07-13T19:48:29.901Z,26.70
2018-07-13T19:50:58.001Z,26.70
2018-07-13T19:53:26.079Z,26.60
2018-07-13T19:55:54.153Z,26.60
2018-07-13T19:58:22.274Z,26.50
2018-07-13T20:00:50.380Z,26.50
2018-07-13T20:03:18.523Z,26.30
2018-07-13T20:05:46.621Z,26.30
2018-07-13T20:08:14.689Z,26.10
2018-07-13T20:10:42.773Z,26.10
2018-07-13T20:13:10.840Z,26.00
2018-07-13T20:15:38.945Z,26.00
2018-07-13T20:18:07.101Z,26.00
2018-07-13T20:20:35.505Z,25.90
2018-07-13T20:23:03.585Z,25.80
2018-07-13T20:25:31.666Z,25.80
2018-07-13T20:27:59.741Z,25.80
2018-07-13T20:30:27.820Z,25.70
2018-07-13T20:32:55.900Z,25.70
2018-07-13T20:35:23.989Z,25.70
2018-07-13T20:37:52.065Z,25.70
2018-07-13T20:40:20.206Z,25.70
2018-07-13T20:42:48.289Z,25.70
2018-07-13T20:45:16.382Z,25.60
2018-07-13T20:47:44.588Z,25.50
2018-07-13T20:50:12.598Z,25.50
2018-07-13T20:52:40.686Z,25.40
2018-07-13T20:55:08.929Z,25.40
2018-07-13T20:57:40.573Z,25.40
2018-07-13T21:00:08.705Z,25.30
2018-07-13T21:02:37.140Z,25.30
2018-07-13T21:05:05.233Z,25.20
2018-07-13T21:07:33.522Z,25.10
2018-07-13T21:10:01.686Z,25.10
2018-07-13T21:12:34.542Z,25.10
2018-07-13T21:15:02.629Z,25.00
2018-07-13T21:17:30.704Z,25.00
2018-07-13T21:19:58.801Z,25.00
2018-07-13T21:22:26.870Z,25.00
2018-07-13T21:24:54.990Z,24.90
2018-07-13T21:27:23.191Z,24.90
2018-07-13T21:29:51.182Z,24.80
2018-07-13T21:32:19.269Z,24.80
2018-07-13T21:37:15.218Z,24.70
2018-07-13T21:39:43.312Z,24.60
2018-07-13T21:42:11.402Z,24.60
2018-07-13T21:44:39.482Z,24.50
2018-07-13T21:47:07.570Z,24.40
2018-07-13T21:49:35.648Z,24.30
2018-07-13T21:52:03.781Z,24.30
2018-07-13T21:54:31.936Z,24.30
2018-07-13T21:57:00.001Z,24.20
2018-07-13T21:59:28.081Z,24.20
2018-07-13T22:01:56.162Z,24.20
2018-07-13T22:04:24.234Z,24.10
2018-07-13T22:06:52.317Z,24.10
2018-07-13T22:09:20.604Z,24.10
2018-07-13T22:11:48.693Z,24.10
2018-07-13T22:16:44.684Z,24.00
2018-07-13T22:19:12.744Z,24.00
2018-07-13T22:21:40.837Z,24.00
2018-07-13T22:24:08.924Z,23.90
2018-07-13T22:26:37.098Z,23.90
2018-07-13T22:29:05.105Z,23.80
2018-07-13T22:31:33.205Z,23.80
2018-07-13T22:34:01.322Z,23.70
2018-07-13T22:36:29.487Z,23.60
2018-07-13T22:38:57.505Z,23.50
2018-07-13T22:41:25.589Z,23.50
2018-07-13T22:43:53.681Z,23.40
2018-07-13T22:46:21.965Z,23.40
2018-07-13T22:48:50.043Z,23.40
2018-07-13T22:51:18.149Z,23.30
2018-07-13T22:53:46.221Z,23.30
2018-07-13T22:56:14.300Z,23.20
2018-07-13T22:58:42.366Z,23.20
2018-07-13T23:01:10.674Z,23.20
2018-07-13T23:03:38.783Z,23.20
2018-07-13T23:06:06.866Z,23.10
2018-07-13T23:11:02.841Z,23.00
2018-07-13T23:13:30.921Z,23.10
2018-07-13T23:15:59.009Z,23.00
2018-07-13T23:18:27.087Z,23.00
2018-07-13T23:20:55.174Z,23.00
2018-07-13T23:23:23.273Z,23.00
2018-07-13T23:25:51.357Z,23.00
2018-07-13T23:28:19.428Z,22.90
2018-07-13T23:30:47.518Z,22.90
2018-07-13T23:33:15.593Z,22.80
2018-07-13T23:35:43.666Z,22.80
2018-07-13T23:38:11.745Z,22.80
2018-07-13T23:40:39.830Z,22.70
2018-07-13T23:43:07.913Z,22.60
2018-07-13T23:45:35.997Z,22.60
2018-07-13T23:48:04.081Z,22.60
2018-07-13T23:50:32.149Z,22.60
2018-07-13T23:53:00.229Z,22.60
2018-07-13T23:55:28.333Z,22.50
2018-07-13T23:57:56.429Z,22.50
